La Florida Airport
SCSE : rendu visible

Aérodrome :











RETROUVEZ-NOUS SUR...

 
LOGIN :

S'inscrire | Disclaimer

   EN    FR    IT 

 









Légende :    VFR   VFR Marginal   IFR   IFR Intensif   IFR Très Intensif
Visi : 
Plafond : 
>= 8 km
>= 3000ft
5 à 8 km
1000 à 3000 ft
1500m à 5 km
500 à 1000 ft
800 à 1500m
200 à 500 ft
< 800m
< 200 ft
Symboles :   Orages  Brouillard  Fortes neiges  Fortes précipitations  Vent > 20 kt






- Altitude de l'aérodrome : 481 ft
- Code IATA : LSC


SCSE - La Florida

DERNIER METAR :
  • 040700Z AUTO 27004KT 180V290 9999 OVC011/// 15/13 Q1010

METARs EXPIRÉS :
  • 040600Z AUTO VRB02KT 9999 OVC011/// 15/13 Q1010
  • 040500Z AUTO 33005KT 290V360 9999 OVC012/// 15/13 Q1010

TAF TAF SCSE
Valide du 04 à 00h jusqu'au 05 à 00h UTC


032220Z 0400/0424 28005KT 9999 SCT020 TX20/0418Z TN13/0411Z
BECMG 0402/0404 24004KT BKN015
TEMPO 0409/0413 12004KT 5000 -DZ BKN005 OVC010
BECMG 0415/0417 29010KT BKN018
BECMG 0416/0418 SCT020
TEMPO 0419/0423 CAVOK



MET'MAP, la Météo Aéronautique d'un coup d'oeil ! - Copyright ORBIFLY Décembre 2007 - Disclaimer

ORBIFLY MET'MAP TEAM :

Programmation & Développement : Alexandra Zaïnal
Sur une idée originale de : Baudouin d'Aumeries
Assistance à la programmation : Marc-Olivier Méhu
Soutien technique & logistique : Manuel Goepfert

Contact : metmap@orbifly.com




SOURCES & CREDITS :

   NOAA       Earth
Advisory